createdAt,value
2018-09-30T00:00:54.734Z,10.10
2018-09-30T00:02:20.925Z,10.09
2018-09-30T00:03:48.211Z,10.08
2018-09-30T00:05:15.640Z,10.05
2018-09-30T00:06:42.863Z,10.03
2018-09-30T00:08:11.060Z,10.03
2018-09-30T00:09:38.397Z,10.02
2018-09-30T00:11:05.463Z,10.01
2018-09-30T00:12:32.865Z,10.02
2018-09-30T00:14:00.228Z,10.00
2018-09-30T00:15:26.449Z,9.98
2018-09-30T00:16:53.952Z,9.97
2018-09-30T00:18:22.147Z,9.96
2018-09-30T00:19:49.298Z,9.95
2018-09-30T00:21:15.471Z,9.94
2018-09-30T00:22:42.801Z,9.93
2018-09-30T00:24:09.886Z,9.92
2018-09-30T00:25:38.268Z,9.92
2018-09-30T00:27:05.391Z,9.91
2018-09-30T00:28:32.634Z,9.90
2018-09-30T00:29:59.898Z,9.90
2018-09-30T00:31:27.239Z,9.90
2018-09-30T00:32:53.426Z,9.90
2018-09-30T00:34:21.734Z,9.89
2018-09-30T00:35:49.107Z,9.88
2018-09-30T00:37:15.770Z,9.86
2018-09-30T00:38:43.125Z,9.86
2018-09-30T00:40:09.221Z,9.86
2018-09-30T00:41:36.566Z,9.86
2018-09-30T00:43:03.931Z,9.86
2018-09-30T00:44:30.845Z,9.84
2018-09-30T00:45:59.147Z,9.81
2018-09-30T00:47:25.541Z,9.79
2018-09-30T00:48:53.841Z,9.76
2018-09-30T00:50:21.223Z,9.74
2018-09-30T00:51:48.474Z,9.72
2018-09-30T00:53:15.726Z,9.72
2018-09-30T00:54:41.685Z,9.71
2018-09-30T00:56:09.281Z,9.66
2018-09-30T00:57:36.415Z,9.63
2018-09-30T00:59:04.775Z,9.60
2018-09-30T01:00:31.005Z,9.57
2018-09-30T01:01:58.425Z,9.55
2018-09-30T01:03:25.812Z,9.52
2018-09-30T01:04:54.200Z,9.50
2018-09-30T01:06:20.433Z,9.49
2018-09-30T01:07:48.854Z,9.48
2018-09-30T01:09:14.550Z,9.45
2018-09-30T01:10:42.827Z,9.44
2018-09-30T01:12:08.875Z,9.42
2018-09-30T01:13:37.138Z,9.40
2018-09-30T01:15:04.209Z,9.39
2018-09-30T01:16:31.521Z,9.35
2018-09-30T01:17:58.720Z,9.32
2018-09-30T01:19:25.041Z,9.29
2018-09-30T01:20:53.307Z,9.28
2018-09-30T01:22:19.576Z,9.27
2018-09-30T01:23:46.213Z,9.25
2018-09-30T01:25:13.568Z,9.24
2018-09-30T01:26:40.432Z,9.21
2018-09-30T01:28:08.309Z,9.20
2018-09-30T01:29:34.910Z,9.17
2018-09-30T01:31:02.228Z,9.14
2018-09-30T01:32:28.592Z,9.11
2018-09-30T01:33:56.991Z,9.10
2018-09-30T01:35:24.152Z,9.08
2018-09-30T01:36:50.639Z,9.06
2018-09-30T01:38:17.049Z,9.07
2018-09-30T01:39:44.395Z,9.07
2018-09-30T01:41:12.618Z,9.06
2018-09-30T01:42:38.903Z,9.06
2018-09-30T01:44:06.489Z,9.07
2018-09-30T01:45:33.271Z,9.06
2018-09-30T01:46:59.630Z,9.06
2018-09-30T01:48:27.893Z,9.07
2018-09-30T01:49:54.203Z,9.07
2018-09-30T01:51:22.145Z,9.07
2018-09-30T01:52:49.107Z,9.06
2018-09-30T01:54:15.228Z,9.06
2018-09-30T01:55:42.549Z,9.04
2018-09-30T01:57:09.568Z,9.03
2018-09-30T01:58:39.941Z,9.02
2018-09-30T02:00:07.135Z,9.02
2018-09-30T02:01:32.499Z,9.03
2018-09-30T02:02:59.762Z,9.05
2018-09-30T02:04:26.524Z,9.07
2018-09-30T02:05:53.158Z,9.07
2018-09-30T02:07:21.478Z,9.08
2018-09-30T02:08:47.522Z,9.08
2018-09-30T02:10:14.781Z,9.10
2018-09-30T02:11:41.986Z,9.11
2018-09-30T02:13:08.482Z,9.12
2018-09-30T02:14:36.346Z,9.13
2018-09-30T02:16:03.679Z,9.15
2018-09-30T02:17:30.570Z,9.15
2018-09-30T02:18:56.843Z,9.15
2018-09-30T02:20:23.474Z,9.16
2018-09-30T02:21:51.719Z,9.16
2018-09-30T02:23:19.099Z,9.14
2018-09-30T02:24:45.220Z,9.14
2018-09-30T02:26:13.301Z,9.12
2018-09-30T02:27:40.408Z,9.13
2018-09-30T02:29:06.715Z,9.15
2018-09-30T02:30:34.027Z,9.16
2018-09-30T02:32:01.382Z,9.17
2018-09-30T02:33:29.626Z,9.17
2018-09-30T02:34:56.922Z,9.18
2018-09-30T02:36:23.041Z,9.17
2018-09-30T02:37:49.673Z,9.17
2018-09-30T02:39:17.010Z,9.16
2018-09-30T02:40:44.418Z,9.12
2018-09-30T02:42:11.385Z,9.12
2018-09-30T02:43:39.600Z,9.13
2018-09-30T02:45:05.890Z,9.14
2018-09-30T02:46:34.177Z,9.16
2018-09-30T02:48:01.430Z,9.16
2018-09-30T02:49:28.808Z,9.18
2018-09-30T02:50:56.051Z,9.19
2018-09-30T02:52:22.392Z,9.20
2018-09-30T02:53:49.669Z,9.20
2018-09-30T02:55:17.753Z,9.18
2018-09-30T02:56:44.912Z,9.18
2018-09-30T02:58:12.159Z,9.16
2018-09-30T02:59:38.377Z,9.13
2018-09-30T03:01:06.809Z,9.11
2018-09-30T03:02:34.123Z,9.10
2018-09-30T03:04:00.180Z,9.12
2018-09-30T03:05:28.365Z,9.14
2018-09-30T03:06:55.639Z,9.14
2018-09-30T03:08:23.025Z,9.14
2018-09-30T03:09:49.445Z,9.11
2018-09-30T03:11:16.862Z,9.12
2018-09-30T03:12:44.118Z,9.12
2018-09-30T03:14:10.912Z,9.13
2018-09-30T03:15:37.071Z,9.13
2018-09-30T03:17:04.864Z,9.14
2018-09-30T03:18:32.280Z,9.15
2018-09-30T03:19:59.473Z,9.14
2018-09-30T03:21:26.688Z,9.14
2018-09-30T03:22:53.905Z,9.16
2018-09-30T03:24:20.270Z,9.15
2018-09-30T03:25:47.349Z,9.13
2018-09-30T03:27:15.440Z,9.12
2018-09-30T03:28:42.675Z,9.12
2018-09-30T03:30:10.067Z,9.13
2018-09-30T03:31:36.418Z,9.14
2018-09-30T03:33:03.567Z,9.16
2018-09-30T03:34:30.783Z,9.17
2018-09-30T03:35:58.940Z,9.18
2018-09-30T03:37:25.090Z,9.20
2018-09-30T03:38:52.872Z,9.21
2018-09-30T03:40:19.129Z,9.23
2018-09-30T03:41:46.377Z,9.25
2018-09-30T03:43:14.540Z,9.26
2018-09-30T03:44:41.556Z,9.28
2018-09-30T03:46:07.836Z,9.29
2018-09-30T03:47:35.767Z,9.29
2018-09-30T03:49:02.585Z,9.29
2018-09-30T03:50:29.992Z,9.30
2018-09-30T03:51:57.028Z,9.29
2018-09-30T03:53:24.388Z,9.30
2018-09-30T03:54:51.578Z,9.30
2018-09-30T03:56:17.903Z,9.32
2018-09-30T03:57:46.227Z,9.31
2018-09-30T03:59:12.556Z,9.30
2018-09-30T04:00:40.764Z,9.30
2018-09-30T04:02:06.323Z,9.27
2018-09-30T04:03:33.707Z,9.23
2018-09-30T04:05:01.419Z,9.22
2018-09-30T04:06:28.775Z,9.21
2018-09-30T04:07:54.583Z,9.22
2018-09-30T04:09:21.954Z,9.21
2018-09-30T04:10:48.821Z,9.21
2018-09-30T04:12:15.540Z,9.20
2018-09-30T04:13:42.796Z,9.18
2018-09-30T04:15:09.678Z,9.18
2018-09-30T04:16:38.051Z,9.17
2018-09-30T04:18:04.894Z,9.17
2018-09-30T04:19:32.112Z,9.15
2018-09-30T04:20:58.759Z,9.14
2018-09-30T04:22:25.902Z,9.11
2018-09-30T04:23:53.187Z,9.05
2018-09-30T04:25:20.517Z,9.04
2018-09-30T04:26:46.655Z,9.02
2018-09-30T04:28:14.538Z,9.01
2018-09-30T04:29:41.578Z,9.01
2018-09-30T04:31:07.890Z,8.98
2018-09-30T04:32:35.652Z,8.98
2018-09-30T04:34:03.011Z,8.97
2018-09-30T04:35:29.117Z,8.97
2018-09-30T04:36:57.215Z,8.97
2018-09-30T04:38:24.374Z,8.96
2018-09-30T04:39:53.290Z,8.96
2018-09-30T04:41:18.519Z,8.97
2018-09-30T04:42:44.903Z,8.96
2018-09-30T04:44:13.207Z,8.95
2018-09-30T04:45:40.496Z,8.94
2018-09-30T04:47:07.825Z,8.94
2018-09-30T04:48:35.046Z,8.95
2018-09-30T04:50:02.522Z,8.97
2018-09-30T04:51:29.892Z,8.97
2018-09-30T04:52:56.088Z,8.95
2018-09-30T04:54:24.286Z,8.96
2018-09-30T04:55:50.570Z,8.97
2018-09-30T04:57:18.941Z,8.98
2018-09-30T04:58:46.146Z,9.00
2018-09-30T05:00:13.316Z,9.01
2018-09-30T05:01:39.422Z,9.01
2018-09-30T05:03:07.687Z,8.99
2018-09-30T05:04:34.947Z,9.00
2018-09-30T05:06:02.321Z,9.01
2018-09-30T05:07:29.579Z,8.98
2018-09-30T05:08:56.438Z,8.98
2018-09-30T05:10:22.833Z,8.98
2018-09-30T05:11:49.947Z,8.93
2018-09-30T05:13:17.159Z,8.91
2018-09-30T05:14:43.925Z,8.90
2018-09-30T05:16:12.255Z,8.89
2018-09-30T05:17:39.888Z,8.88
2018-09-30T05:19:05.003Z,8.88
2018-09-30T05:20:31.714Z,8.84
2018-09-30T05:21:59.761Z,8.86
2018-09-30T05:23:26.944Z,8.85
2018-09-30T05:24:53.328Z,8.86
2018-09-30T05:26:21.573Z,8.84
2018-09-30T05:27:48.491Z,8.83
2018-09-30T05:29:14.750Z,8.83
2018-09-30T05:30:43.024Z,8.83
2018-09-30T05:32:08.595Z,8.82
2018-09-30T05:33:35.265Z,8.81
2018-09-30T05:35:03.585Z,8.80
2018-09-30T05:36:30.016Z,8.80
2018-09-30T05:37:57.390Z,8.77
2018-09-30T05:39:24.574Z,8.77
2018-09-30T05:40:51.306Z,8.79
2018-09-30T05:42:18.656Z,8.79
2018-09-30T05:43:45.918Z,8.80
2018-09-30T05:45:13.083Z,8.80
2018-09-30T05:46:39.220Z,8.80
2018-09-30T05:48:06.605Z,8.82
2018-09-30T05:49:32.422Z,8.82
2018-09-30T05:51:00.513Z,8.84
2018-09-30T05:52:27.724Z,8.87
2018-09-30T05:53:54.052Z,8.86
2018-09-30T05:55:22.068Z,8.88
2018-09-30T05:56:48.272Z,8.90
2018-09-30T05:58:16.686Z,8.90
2018-09-30T05:59:43.936Z,8.92
2018-09-30T06:01:10.660Z,8.94
2018-09-30T06:02:40.029Z,8.95
2018-09-30T06:04:05.481Z,8.97
2018-09-30T06:05:32.714Z,9.03
2018-09-30T06:06:59.643Z,9.09
2018-09-30T06:08:25.890Z,9.13
2018-09-30T06:09:52.460Z,9.17
2018-09-30T06:11:19.705Z,9.22
2018-09-30T06:12:46.582Z,9.29
2018-09-30T06:14:14.982Z,9.33
2018-09-30T06:15:40.390Z,9.37
2018-09-30T06:17:07.348Z,9.43
2018-09-30T06:18:35.572Z,9.46
2018-09-30T06:20:02.856Z,9.53
2018-09-30T06:21:28.618Z,9.59
2018-09-30T06:22:56.957Z,9.66
2018-09-30T06:24:24.215Z,9.70
2018-09-30T06:25:51.352Z,9.74
2018-09-30T06:27:17.859Z,9.75
2018-09-30T06:28:46.118Z,9.80
2018-09-30T06:30:12.627Z,9.82
2018-09-30T06:31:39.855Z,9.83
2018-09-30T06:33:08.118Z,9.85
2018-09-30T06:34:33.558Z,9.88
2018-09-30T06:36:01.990Z,9.94
2018-09-30T06:37:28.233Z,9.99
2018-09-30T06:38:55.519Z,10.04
2018-09-30T06:40:23.928Z,10.10
2018-09-30T06:41:51.079Z,10.15
2018-09-30T06:43:18.324Z,10.20
2018-09-30T06:44:45.430Z,10.25
2018-09-30T06:46:12.834Z,10.29
2018-09-30T06:47:39.056Z,10.31
2018-09-30T06:49:06.525Z,10.35
2018-09-30T06:50:33.872Z,10.39
2018-09-30T06:52:01.210Z,10.43
2018-09-30T06:53:29.523Z,10.46
2018-09-30T06:54:55.430Z,10.50
2018-09-30T06:56:22.829Z,10.55
2018-09-30T06:57:51.063Z,10.60
2018-09-30T06:59:17.338Z,10.61
2018-09-30T07:00:44.724Z,10.65
2018-09-30T07:02:12.544Z,10.68
2018-09-30T07:03:39.914Z,10.69
2018-09-30T07:05:07.334Z,10.71
2018-09-30T07:06:33.684Z,10.73
2018-09-30T07:08:01.071Z,10.76
2018-09-30T07:09:28.482Z,10.80
2018-09-30T07:10:57.026Z,10.82
2018-09-30T07:12:24.163Z,10.82
2018-09-30T07:13:50.483Z,10.84
2018-09-30T07:15:17.841Z,10.86
2018-09-30T07:16:45.935Z,10.91
2018-09-30T07:18:13.318Z,10.94
2018-09-30T07:19:39.137Z,10.97
2018-09-30T07:21:07.338Z,11.03
2018-09-30T07:22:34.737Z,11.08
2018-09-30T07:24:06.967Z,11.14
2018-09-30T07:25:29.181Z,11.19
2018-09-30T07:26:55.227Z,11.24
2018-09-30T07:28:23.405Z,11.29
2018-09-30T07:29:49.757Z,11.33
2018-09-30T07:31:18.174Z,11.37
2018-09-30T07:32:44.442Z,11.41
2018-09-30T07:34:12.383Z,11.46
2018-09-30T07:35:38.300Z,11.52
2018-09-30T07:37:06.342Z,11.57
2018-09-30T07:38:32.496Z,11.60
2018-09-30T07:39:59.599Z,11.63
2018-09-30T07:41:27.881Z,11.66
2018-09-30T07:42:54.999Z,11.69
2018-09-30T07:44:22.294Z,11.71
2018-09-30T07:45:49.705Z,11.73
2018-09-30T07:47:16.019Z,11.74
2018-09-30T07:48:43.276Z,11.75
2018-09-30T07:50:10.408Z,11.77
2018-09-30T07:51:38.851Z,11.78
2018-09-30T07:53:05.055Z,11.79
2018-09-30T07:54:32.448Z,11.80
2018-09-30T07:55:59.776Z,11.81
2018-09-30T07:57:27.357Z,11.82
2018-09-30T07:58:54.745Z,11.84
2018-09-30T08:00:22.955Z,11.87
2018-09-30T08:01:50.301Z,11.87
2018-09-30T08:03:16.540Z,11.91
2018-09-30T08:04:44.724Z,11.96
2018-09-30T08:06:10.839Z,12.01
2018-09-30T08:07:39.174Z,12.06
2018-09-30T08:09:06.594Z,12.10
2018-09-30T08:10:34.002Z,12.15
2018-09-30T08:12:01.497Z,12.20
2018-09-30T08:13:28.919Z,12.27
2018-09-30T08:14:55.033Z,12.30
2018-09-30T08:16:22.198Z,12.35
2018-09-30T08:17:49.463Z,12.37
2018-09-30T08:19:17.712Z,12.41
2018-09-30T08:20:44.088Z,12.45
2018-09-30T08:22:12.154Z,12.48
2018-09-30T08:23:39.426Z,12.49
2018-09-30T08:25:05.917Z,12.51
2018-09-30T08:26:33.169Z,12.55
2018-09-30T08:28:01.730Z,12.59
2018-09-30T08:29:28.232Z,12.63
2018-09-30T08:30:56.545Z,12.63
2018-09-30T08:32:23.373Z,12.60
2018-09-30T08:33:49.557Z,12.57
2018-09-30T08:35:16.757Z,12.61
2018-09-30T08:36:44.659Z,12.64
2018-09-30T08:38:10.993Z,12.66
2018-09-30T08:39:38.505Z,12.67
2018-09-30T08:41:06.762Z,12.65
2018-09-30T08:42:33.117Z,12.63
2018-09-30T08:44:01.508Z,12.61
2018-09-30T08:45:27.850Z,12.62
2018-09-30T08:46:56.360Z,12.64
2018-09-30T08:48:22.834Z,12.65
2018-09-30T08:49:50.137Z,12.68
2018-09-30T08:51:18.383Z,12.71
2018-09-30T08:52:44.744Z,12.76
2018-09-30T08:54:13.030Z,12.84
2018-09-30T08:55:39.245Z,12.91
2018-09-30T08:57:06.465Z,12.96
2018-09-30T08:58:34.721Z,13.01
2018-09-30T09:00:01.093Z,13.08
2018-09-30T09:01:28.415Z,13.14
2018-09-30T09:02:56.687Z,13.19
2018-09-30T09:04:22.954Z,13.24
2018-09-30T09:05:51.187Z,13.28
2018-09-30T09:07:17.487Z,13.33
2018-09-30T09:08:44.961Z,13.35
2018-09-30T09:10:12.339Z,13.39
2018-09-30T09:11:40.671Z,13.45
2018-09-30T09:13:06.920Z,13.52
2018-09-30T09:14:34.304Z,13.59
2018-09-30T09:16:02.843Z,13.65
2018-09-30T09:17:29.199Z,13.69
2018-09-30T09:18:57.706Z,13.72
2018-09-30T09:20:24.940Z,13.76
2018-09-30T09:21:51.057Z,13.81
2018-09-30T09:23:18.201Z,13.85
2018-09-30T09:24:46.586Z,13.92
2018-09-30T09:26:12.920Z,13.99
2018-09-30T09:27:40.112Z,14.03
2018-09-30T09:29:08.475Z,14.08
2018-09-30T09:30:35.983Z,14.13
2018-09-30T09:32:03.125Z,14.18
2018-09-30T09:33:29.596Z,14.24
2018-09-30T09:34:57.142Z,14.25
2018-09-30T09:36:25.855Z,14.29
2018-09-30T09:37:52.151Z,14.33
2018-09-30T09:39:19.445Z,14.36
2018-09-30T09:40:46.858Z,14.40
2018-09-30T09:42:15.251Z,14.42
2018-09-30T09:43:42.630Z,14.44
2018-09-30T09:45:09.718Z,14.44
2018-09-30T09:46:37.172Z,14.41
2018-09-30T09:48:03.421Z,14.38
2018-09-30T09:49:30.962Z,14.37
2018-09-30T09:50:59.414Z,14.37
2018-09-30T09:52:26.805Z,14.37
2018-09-30T09:53:52.675Z,14.35
2018-09-30T09:55:19.929Z,14.35
2018-09-30T09:56:53.209Z,14.38
2018-09-30T09:58:15.366Z,14.39
2018-09-30T09:59:42.888Z,14.39
2018-09-30T10:01:10.119Z,14.40
2018-09-30T10:02:37.454Z,14.38
2018-09-30T10:04:03.827Z,14.36
2018-09-30T10:05:32.234Z,14.33
2018-09-30T10:06:58.568Z,14.30
2018-09-30T10:08:27.063Z,14.30
2018-09-30T10:09:54.468Z,14.29
2018-09-30T10:11:20.742Z,14.32
2018-09-30T10:12:47.750Z,14.38
2018-09-30T10:14:15.178Z,14.46
2018-09-30T10:15:43.409Z,14.54
2018-09-30T10:17:10.299Z,14.62
2018-09-30T10:18:36.760Z,14.67
2018-09-30T10:20:04.296Z,14.76
2018-09-30T10:21:32.774Z,14.88
2018-09-30T10:22:59.130Z,14.98
2018-09-30T10:24:26.506Z,15.07
2018-09-30T10:25:53.780Z,15.14
2018-09-30T10:27:20.836Z,15.22
2018-09-30T10:28:49.148Z,15.30
2018-09-30T10:30:15.618Z,15.39
2018-09-30T10:31:43.167Z,15.47
2018-09-30T10:33:10.283Z,15.50
2018-09-30T10:34:37.524Z,15.56
2018-09-30T10:36:04.827Z,15.62
2018-09-30T10:37:31.830Z,15.60
2018-09-30T10:38:59.983Z,15.59
2018-09-30T10:40:26.566Z,15.59
2018-09-30T10:41:53.882Z,15.64
2018-09-30T10:43:22.147Z,15.69
2018-09-30T10:44:48.324Z,15.71
2018-09-30T10:46:15.287Z,15.74
2018-09-30T10:47:43.620Z,15.80
2018-09-30T10:49:10.600Z,15.86
2018-09-30T10:50:38.043Z,15.92
2018-09-30T10:52:05.580Z,15.99
2018-09-30T10:53:31.814Z,16.05
2018-09-30T10:55:00.305Z,16.08
2018-09-30T10:56:26.205Z,16.13
2018-09-30T10:57:53.380Z,16.19
2018-09-30T10:59:20.783Z,16.29
2018-09-30T11:00:48.343Z,16.39
2018-09-30T11:02:15.606Z,16.51
2018-09-30T11:03:44.002Z,16.59
2018-09-30T11:05:10.065Z,16.71
2018-09-30T11:06:37.536Z,16.87
2018-09-30T11:08:15.618Z,17.06
2018-09-30T11:09:42.762Z,17.25
2018-09-30T11:11:09.911Z,17.38
2018-09-30T11:12:36.482Z,17.39
2018-09-30T11:14:04.041Z,17.37
2018-09-30T11:15:32.572Z,17.32
2018-09-30T11:16:58.920Z,17.34
2018-09-30T11:18:27.441Z,17.52
2018-09-30T11:19:53.454Z,17.74
2018-09-30T11:21:20.760Z,17.95
2018-09-30T11:22:48.149Z,18.13
2018-09-30T11:24:16.458Z,18.23
2018-09-30T11:25:42.977Z,18.20
2018-09-30T11:27:10.366Z,18.09
2018-09-30T11:28:38.848Z,17.98
2018-09-30T11:30:06.165Z,17.89
2018-09-30T11:31:33.627Z,17.79
2018-09-30T11:33:00.288Z,17.70
2018-09-30T11:34:27.700Z,17.54
2018-09-30T11:35:55.182Z,17.38
2018-09-30T11:37:22.707Z,17.32
2018-09-30T11:38:50.030Z,17.19
2018-09-30T11:40:18.349Z,17.18
2018-09-30T11:41:45.542Z,17.12
2018-09-30T11:43:11.882Z,17.13
2018-09-30T11:44:39.950Z,17.18
2018-09-30T11:46:07.307Z,17.21
2018-09-30T11:47:34.201Z,17.21
2018-09-30T11:49:01.488Z,17.23
2018-09-30T11:50:27.999Z,17.15
2018-09-30T11:51:56.445Z,17.11
2018-09-30T11:53:22.677Z,17.08
2018-09-30T11:54:49.991Z,17.13
2018-09-30T11:56:17.565Z,17.15
2018-09-30T11:57:46.028Z,17.19
2018-09-30T11:59:13.461Z,17.09
2018-09-30T12:00:39.800Z,17.08
2018-09-30T12:02:08.214Z,17.08
2018-09-30T12:03:35.653Z,17.10
2018-09-30T12:05:03.282Z,17.13
2018-09-30T12:06:30.736Z,17.14
2018-09-30T12:07:58.044Z,17.20
2018-09-30T12:09:24.419Z,17.26
2018-09-30T12:10:52.817Z,17.33
2018-09-30T12:12:20.416Z,17.43
2018-09-30T12:13:46.860Z,17.48
2018-09-30T12:15:15.428Z,17.53
2018-09-30T12:16:41.655Z,17.61
2018-09-30T12:18:10.068Z,17.72
2018-09-30T12:19:36.643Z,17.82
2018-09-30T12:21:04.317Z,17.87
2018-09-30T12:22:31.627Z,17.97
2018-09-30T12:23:59.131Z,18.10
2018-09-30T12:25:26.480Z,18.19
2018-09-30T12:26:54.853Z,18.29
2018-09-30T12:28:22.146Z,18.40
2018-09-30T12:29:49.865Z,18.47
2018-09-30T12:31:17.480Z,18.49
2018-09-30T12:32:44.870Z,18.55
2018-09-30T12:34:12.090Z,18.59
2018-09-30T12:35:39.610Z,18.48
2018-09-30T12:37:07.174Z,18.36
2018-09-30T12:38:33.206Z,18.41
2018-09-30T12:40:01.735Z,18.42
2018-09-30T12:41:28.976Z,18.41
2018-09-30T12:42:55.545Z,18.30
2018-09-30T12:44:24.071Z,18.32
2018-09-30T12:45:50.423Z,18.31
2018-09-30T12:47:18.878Z,18.33
2018-09-30T12:48:45.147Z,18.24
2018-09-30T12:50:13.622Z,18.05
2018-09-30T12:51:40.175Z,17.95
2018-09-30T12:53:07.558Z,17.93
2018-09-30T12:54:33.578Z,17.92
2018-09-30T12:56:02.200Z,17.87
2018-09-30T12:57:29.384Z,17.81
2018-09-30T12:58:56.850Z,17.86
2018-09-30T13:00:24.166Z,17.89
2018-09-30T13:01:51.513Z,17.93
2018-09-30T13:03:18.003Z,17.84
2018-09-30T13:04:45.072Z,17.83
2018-09-30T13:06:12.613Z,17.82
2018-09-30T13:07:39.771Z,17.82
2018-09-30T13:09:08.375Z,17.87
2018-09-30T13:10:34.135Z,17.84
2018-09-30T13:12:01.328Z,17.85
2018-09-30T13:13:28.654Z,17.88
2018-09-30T13:14:56.198Z,17.87
2018-09-30T13:16:23.571Z,17.85
2018-09-30T13:17:52.027Z,17.86
2018-09-30T13:19:18.456Z,17.89
2018-09-30T13:20:46.216Z,17.87
2018-09-30T13:22:12.576Z,17.84
2018-09-30T13:23:39.497Z,17.72
2018-09-30T13:25:07.346Z,17.70
2018-09-30T13:26:33.308Z,17.68
2018-09-30T13:28:01.626Z,17.69
2018-09-30T13:29:28.235Z,17.63
2018-09-30T13:30:56.795Z,17.63
2018-09-30T13:32:24.331Z,17.58
2018-09-30T13:33:50.741Z,17.58
2018-09-30T13:35:18.918Z,17.52
2018-09-30T13:36:46.100Z,17.45
2018-09-30T13:38:13.269Z,17.43
2018-09-30T13:39:39.627Z,17.40
2018-09-30T13:41:07.155Z,17.36
2018-09-30T13:42:35.473Z,17.38
2018-09-30T13:44:01.776Z,17.34
2018-09-30T13:45:30.298Z,17.35
2018-09-30T13:46:56.766Z,17.40
2018-09-30T13:48:25.209Z,17.43
2018-09-30T13:49:51.438Z,17.41
2018-09-30T13:51:18.912Z,17.42
2018-09-30T13:52:47.413Z,17.44
2018-09-30T13:54:14.859Z,17.44
2018-09-30T13:55:41.136Z,17.40
2018-09-30T13:57:09.549Z,17.40
2018-09-30T13:58:37.175Z,17.40
2018-09-30T14:00:04.370Z,17.39
2018-09-30T14:01:30.944Z,17.34
2018-09-30T14:02:58.361Z,17.28
2018-09-30T14:04:26.942Z,17.21
2018-09-30T14:05:53.400Z,17.17
2018-09-30T14:07:20.869Z,17.13
2018-09-30T14:08:49.392Z,17.09
2018-09-30T14:10:16.714Z,17.05
2018-09-30T14:11:43.081Z,17.06
2018-09-30T14:13:10.435Z,17.02
2018-09-30T14:14:38.684Z,17.03
2018-09-30T14:16:05.200Z,17.03
2018-09-30T14:17:32.711Z,16.98
2018-09-30T14:19:00.060Z,16.96
2018-09-30T14:20:27.950Z,16.91
2018-09-30T14:21:55.454Z,16.85
2018-09-30T14:23:21.869Z,16.83
2018-09-30T14:24:49.322Z,16.80
2018-09-30T14:26:16.243Z,16.80
2018-09-30T14:27:44.658Z,16.82
2018-09-30T14:29:11.858Z,16.79
2018-09-30T14:30:38.505Z,16.80
2018-09-30T14:32:05.572Z,16.80
2018-09-30T14:33:34.016Z,16.80
2018-09-30T14:35:00.161Z,16.82
2018-09-30T14:36:27.628Z,16.81
2018-09-30T14:37:55.052Z,16.78
2018-09-30T14:39:22.587Z,16.74
2018-09-30T14:40:50.074Z,16.73
2018-09-30T14:42:17.626Z,16.73
2018-09-30T14:43:45.877Z,16.73
2018-09-30T14:45:12.363Z,16.72
2018-09-30T14:46:39.623Z,16.67
2018-09-30T14:48:08.037Z,16.63
2018-09-30T14:49:34.561Z,16.62
2018-09-30T14:51:00.620Z,16.61
2018-09-30T14:52:29.325Z,16.59
2018-09-30T14:53:56.238Z,16.54
2018-09-30T14:55:22.691Z,16.54
2018-09-30T14:56:49.898Z,16.52
2018-09-30T14:58:17.966Z,16.47
2018-09-30T14:59:44.280Z,16.48
2018-09-30T15:01:11.195Z,16.46
2018-09-30T15:02:38.644Z,16.44
2018-09-30T15:04:12.036Z,16.45
2018-09-30T15:05:33.256Z,16.44
2018-09-30T15:07:01.368Z,16.42
2018-09-30T15:08:27.702Z,16.38
2018-09-30T15:09:54.719Z,16.34
2018-09-30T15:11:22.198Z,16.29
2018-09-30T15:12:50.725Z,16.27
2018-09-30T15:14:17.918Z,16.27
2018-09-30T15:15:45.039Z,16.25
2018-09-30T15:17:11.399Z,16.26
2018-09-30T15:18:38.885Z,16.25
2018-09-30T15:20:06.347Z,16.23
2018-09-30T15:21:34.816Z,16.24
2018-09-30T15:23:02.286Z,16.22
2018-09-30T15:24:29.343Z,16.17
2018-09-30T15:25:56.778Z,16.17
2018-09-30T15:27:24.173Z,16.13
2018-09-30T15:28:50.510Z,16.09
2018-09-30T15:30:19.022Z,16.09
2018-09-30T15:31:46.321Z,16.03
2018-09-30T15:33:13.793Z,16.02
2018-09-30T15:34:39.651Z,15.98
2018-09-30T15:36:06.959Z,15.94
2018-09-30T15:37:34.312Z,15.90
2018-09-30T15:39:02.716Z,15.85
2018-09-30T15:40:29.740Z,15.80
2018-09-30T15:41:55.817Z,15.80
2018-09-30T15:43:22.693Z,15.82
2018-09-30T15:44:50.098Z,15.85
2018-09-30T15:46:17.610Z,15.85
2018-09-30T15:47:44.699Z,15.82
2018-09-30T15:49:11.581Z,15.82
2018-09-30T15:50:39.020Z,15.81
2018-09-30T15:52:06.965Z,15.82
2018-09-30T15:53:34.614Z,15.78
2018-09-30T15:55:01.142Z,15.75
2018-09-30T15:56:28.461Z,15.74
2018-09-30T15:57:55.396Z,15.70
2018-09-30T15:59:22.568Z,15.67
2018-09-30T16:00:49.777Z,15.65
2018-09-30T16:02:18.131Z,15.62
2018-09-30T16:03:45.583Z,15.62
2018-09-30T16:05:12.946Z,15.61
2018-09-30T16:06:40.541Z,15.59
2018-09-30T16:08:07.930Z,15.51
2018-09-30T16:09:34.195Z,15.43
2018-09-30T16:11:01.718Z,15.42
2018-09-30T16:12:30.074Z,15.43
2018-09-30T16:13:56.550Z,15.44
2018-09-30T16:15:23.760Z,15.41
2018-09-30T16:16:52.278Z,15.36
2018-09-30T16:18:19.398Z,15.32
2018-09-30T16:19:45.726Z,15.30
2018-09-30T16:21:14.061Z,15.28
2018-09-30T16:22:41.316Z,15.24
2018-09-30T16:24:07.626Z,15.24
2018-09-30T16:25:34.882Z,15.24
2018-09-30T16:27:02.325Z,15.24
2018-09-30T16:28:30.479Z,15.25
2018-09-30T16:29:56.948Z,15.25
2018-09-30T16:31:25.402Z,15.25
2018-09-30T16:32:52.860Z,15.25
2018-09-30T16:34:19.260Z,15.25
2018-09-30T16:35:47.827Z,15.24
2018-09-30T16:37:15.100Z,15.23
2018-09-30T16:38:42.538Z,15.21
2018-09-30T16:40:09.712Z,15.20
2018-09-30T16:41:37.188Z,15.18
2018-09-30T16:43:03.547Z,15.17
2018-09-30T16:44:31.133Z,15.15
2018-09-30T16:45:59.514Z,15.14
2018-09-30T16:47:26.891Z,15.11
2018-09-30T16:48:54.469Z,15.08
2018-09-30T16:50:20.942Z,15.06
2018-09-30T16:51:48.910Z,15.04
2018-09-30T16:53:16.038Z,15.02
2018-09-30T16:54:43.459Z,14.98
2018-09-30T16:56:10.612Z,14.97
2018-09-30T16:57:37.228Z,14.96
2018-09-30T16:59:05.453Z,14.95
2018-09-30T17:00:32.890Z,14.94
2018-09-30T17:01:59.327Z,14.93
2018-09-30T17:03:26.626Z,14.92
2018-09-30T17:04:53.990Z,14.91
2018-09-30T17:06:22.301Z,14.90
2018-09-30T17:07:49.919Z,14.88
2018-09-30T17:09:16.352Z,14.86
2018-09-30T17:10:44.690Z,14.85
2018-09-30T17:12:12.197Z,14.83
2018-09-30T17:13:38.487Z,14.82
2018-09-30T17:15:06.655Z,14.81
2018-09-30T17:16:34.136Z,14.81
2018-09-30T17:18:01.499Z,14.80
2018-09-30T17:19:27.793Z,14.77
2018-09-30T17:20:54.864Z,14.74
2018-09-30T17:22:22.288Z,14.69
2018-09-30T17:23:50.960Z,14.68
2018-09-30T17:25:18.145Z,14.67
2018-09-30T17:26:44.415Z,14.67
2018-09-30T17:28:12.878Z,14.67
2018-09-30T17:29:39.096Z,14.65
2018-09-30T17:31:06.313Z,14.66
2018-09-30T17:32:34.854Z,14.66
2018-09-30T17:34:02.328Z,14.66
2018-09-30T17:35:28.459Z,14.67
2018-09-30T17:36:55.901Z,14.65
2018-09-30T17:38:23.348Z,14.63
2018-09-30T17:39:51.901Z,14.59
2018-09-30T17:41:24.256Z,14.53
2018-09-30T17:42:45.463Z,14.52
2018-09-30T17:44:12.818Z,14.51
2018-09-30T17:45:41.049Z,14.48
2018-09-30T17:47:07.464Z,14.45
2018-09-30T17:48:35.897Z,14.41
2018-09-30T17:50:02.468Z,14.41
2018-09-30T17:51:30.766Z,14.42
2018-09-30T17:52:58.176Z,14.41
2018-09-30T17:54:25.124Z,14.41
2018-09-30T17:55:52.624Z,14.37
2018-09-30T17:57:19.093Z,14.32
2018-09-30T17:58:46.371Z,14.30
2018-09-30T18:00:14.771Z,14.30
2018-09-30T18:01:42.108Z,14.28
2018-09-30T18:03:09.381Z,14.28
2018-09-30T18:04:35.668Z,14.25
2018-09-30T18:06:03.016Z,14.25
2018-09-30T18:07:30.310Z,14.25
2018-09-30T18:08:58.535Z,14.26
2018-09-30T18:10:25.919Z,14.27
2018-09-30T18:11:52.179Z,14.24
2018-09-30T18:13:19.560Z,14.17
2018-09-30T18:14:46.679Z,14.16
2018-09-30T18:16:15.019Z,14.13
2018-09-30T18:17:42.470Z,14.04
2018-09-30T18:19:09.729Z,13.92
2018-09-30T18:20:37.272Z,13.82
2018-09-30T18:22:04.388Z,13.77
2018-09-30T18:23:30.662Z,13.74
2018-09-30T18:24:58.192Z,13.73
2018-09-30T18:26:25.549Z,13.72
2018-09-30T18:27:53.552Z,13.72
2018-09-30T18:29:19.387Z,13.72
2018-09-30T18:30:47.733Z,13.71
2018-09-30T18:32:15.208Z,13.70
2018-09-30T18:33:42.498Z,13.68
2018-09-30T18:35:08.485Z,13.67
2018-09-30T18:36:37.017Z,13.64
2018-09-30T18:38:04.011Z,13.62
2018-09-30T18:39:30.450Z,13.60
2018-09-30T18:40:58.775Z,13.59
2018-09-30T18:42:25.129Z,13.58
2018-09-30T18:43:53.516Z,13.56
2018-09-30T18:45:20.947Z,13.54
2018-09-30T18:46:48.346Z,13.52
2018-09-30T18:48:15.667Z,13.51
2018-09-30T18:49:42.993Z,13.48
2018-09-30T18:51:10.645Z,13.47
2018-09-30T18:52:38.040Z,13.43
2018-09-30T18:54:05.248Z,13.38
2018-09-30T18:55:32.552Z,13.33
2018-09-30T18:56:59.997Z,13.30